Time;durP1;ratioP1;P1;durP2;ratioP2;P2;SDS_P1;SDS_P2;PMS_P1;PMS_P2;Temp;Humidity;BMP_temperature;BMP_pressure;BME280_temperature;BME280_humidity;BME280_pressure;Samples;Min_cycle;Max_cycle;Signal;HPM_P1;HPM_P2
2023/02/25 00:02:24;;;;;;;0.70;0.70;;;;;;;5.78;90.94;99208.44;5049433;28;20448;-51
2023/02/25 00:04:52;;;;;;;1.10;1.03;;;;;;;6.06;91.66;99206.81;5046746;28;20470;-51
2023/02/25 00:07:18;;;;;;;1.90;0.60;;;;;;;5.93;92.18;99211.56;5043165;28;20811;-50
2023/02/25 00:09:45;;;;;;;0.97;0.77;;;;;;;5.71;92.66;99209.50;5052473;28;20458;-50
2023/02/25 00:12:11;;;;;;;1.00;0.70;;;;;;;5.65;93.22;99218.44;5044656;28;20464;-51
2023/02/25 00:14:39;;;;;;;1.03;0.97;;;;;;;5.56;93.19;99223.94;5050212;28;20461;-51
2023/02/25 00:17:05;;;;;;;0.60;0.50;;;;;;;5.51;94.29;99223.22;5052895;28;20529;-51
2023/02/25 00:19:32;;;;;;;6.20;1.00;;;;;;;5.56;93.74;99227.44;5052772;28;20451;-51
2023/02/25 00:21:59;;;;;;;1.30;0.97;;;;;;;5.58;93.65;99223.00;5052772;28;20451;-51
2023/02/25 00:24:25;;;;;;;0.40;0.40;;;;;;;5.59;93.55;99227.34;5052507;28;20554;-51
2023/02/25 00:26:52;;;;;;;0.60;0.60;;;;;;;5.59;93.90;99230.00;5052598;28;20552;-51
2023/02/25 00:29:18;;;;;;;0.73;0.53;;;;;;;5.58;93.99;99232.66;5051474;28;20508;-51
2023/02/25 00:31:45;;;;;;;0.83;0.83;;;;;;;5.61;93.90;99225.53;5040773;28;20976;-51
2023/02/25 00:34:12;;;;;;;2.37;1.30;;;;;;;5.57;94.09;99221.25;5037733;28;20533;-51
2023/02/25 00:36:38;;;;;;;0.73;0.73;;;;;;;5.59;94.02;99211.53;5037659;28;20472;-51
2023/02/25 00:39:05;;;;;;;0.97;0.93;;;;;;;5.63;94.43;99213.22;5050846;28;20465;-51
2023/02/25 00:41:32;;;;;;;2.00;1.80;;;;;;;5.47;94.09;99230.31;5052604;28;20450;-51
2023/02/25 00:44:00;;;;;;;1.70;1.60;;;;;;;5.47;94.03;99232.94;5052438;28;20450;-51
2023/02/25 00:46:28;;;;;;;0.53;0.53;;;;;;;5.50;94.30;99232.88;5052110;28;21007;-51
2023/02/25 00:48:55;;;;;;;0.83;0.83;;;;;;;5.35;94.88;99233.28;5026192;28;20504;-51
2023/02/25 00:51:24;;;;;;;0.50;0.40;;;;;;;5.45;95.49;99239.16;5052256;28;20452;-51
2023/02/25 00:53:51;;;;;;;0.60;0.57;;;;;;;5.28;95.45;99229.91;5052220;28;20850;-50
2023/02/25 00:56:18;;;;;;;0.70;0.70;;;;;;;5.51;95.93;99237.25;5051036;28;20532;-51
2023/02/25 00:58:48;;;;;;;1.30;1.20;;;;;;;5.62;94.80;99236.97;5052293;28;20936;-51
2023/02/25 01:01:23;;;;;;;5.70;2.10;;;;;;;5.43;95.27;99238.34;5052156;28;20454;-51
2023/02/25 01:03:53;;;;;;;1.30;0.60;;;;;;;5.30;95.68;99236.00;5046153;28;20508;-51
2023/02/25 01:06:20;;;;;;;0.57;0.57;;;;;;;5.32;95.77;99228.91;5037592;28;20487;-51
2023/02/25 01:08:48;;;;;;;1.30;0.60;;;;;;;5.24;96.09;99235.28;5052201;28;20865;-51
2023/02/25 01:11:19;;;;;;;0.40;0.40;;;;;;;5.19;95.92;99234.50;5051853;28;20463;-51
2023/02/25 01:13:48;;;;;;;2.87;0.97;;;;;;;5.21;95.83;99232.72;5042421;28;20850;-51
2023/02/25 01:16:18;;;;;;;0.90;0.70;;;;;;;5.20;95.82;99231.84;5051940;28;20473;-51
2023/02/25 01:18:45;;;;;;;0.93;0.80;;;;;;;5.10;95.26;99222.44;5052076;28;20501;-51
2023/02/25 01:21:25;;;;;;;0.50;0.50;;;;;;;5.11;96.48;99226.81;5051938;28;20455;-51
2023/02/25 01:23:58;;;;;;;0.50;0.40;;;;;;;5.20;95.49;99213.41;5055853;28;20813;-51
2023/02/25 01:26:26;;;;;;;0.40;0.30;;;;;;;5.33;94.59;99211.34;5031357;28;20849;-51
2023/02/25 01:28:54;;;;;;;0.30;0.30;;;;;;;5.31;93.46;99219.28;5056091;28;20533;-51
2023/02/25 01:31:23;;;;;;;0.80;0.53;;;;;;;5.32;93.98;99212.25;5056337;28;21003;-51
2023/02/25 01:33:50;;;;;;;0.40;0.37;;;;;;;5.31;93.78;99211.38;5055977;28;20482;-51
2023/02/25 01:36:16;;;;;;;0.50;0.47;;;;;;;5.56;93.78;99205.50;5056014;28;20462;-51
2023/02/25 01:38:43;;;;;;;9.23;0.77;;;;;;;5.58;92.96;99211.59;5055772;28;20483;-51
2023/02/25 01:41:09;;;;;;;5.03;0.50;;;;;;;5.53;92.92;99210.84;5055681;28;20458;-51
2023/02/25 01:43:36;;;;;;;0.40;0.33;;;;;;;5.58;92.41;99203.69;5055847;28;20447;-50
2023/02/25 01:46:02;;;;;;;0.50;0.50;;;;;;;5.52;92.84;99204.72;5055614;28;20995;-51
2023/02/25 01:48:33;;;;;;;0.30;0.30;;;;;;;5.64;92.82;99209.66;5055754;28;20446;-51
2023/02/25 01:51:05;;;;;;;1.80;0.97;;;;;;;5.51;91.70;99221.44;5056014;28;20450;-51
2023/02/25 01:53:37;;;;;;;0.57;0.57;;;;;;;5.56;91.54;99211.63;5055587;28;20450;-50
2023/02/25 01:56:04;;;;;;;2.43;1.13;;;;;;;5.54;91.91;99213.44;5055416;28;20474;-51
2023/02/25 01:58:32;;;;;;;0.83;0.67;;;;;;;5.49;91.93;99217.97;5055798;28;20450;-51
2023/02/25 02:00:59;;;;;;;1.17;0.50;;;;;;;5.43;93.39;99223.38;5055834;28;20450;-50
2023/02/25 02:03:33;;;;;;;5.10;1.23;;;;;;;5.63;93.05;99218.50;5047986;28;20994;-51
2023/02/25 02:06:12;;;;;;;0.30;0.20;;;;;;;5.71;92.14;99217.41;5050641;28;20477;-51
2023/02/25 02:08:40;;;;;;;5.97;0.30;;;;;;;5.64;92.01;99227.25;5031139;28;20452;-51
2023/02/25 02:11:06;;;;;;;0.97;0.40;;;;;;;5.67;91.24;99224.53;5055121;28;20452;-52
2023/02/25 02:13:36;;;;;;;0.70;0.50;;;;;;;5.73;91.09;99226.13;5044094;28;21023;-51
2023/02/25 02:16:11;;;;;;;2.00;0.60;;;;;;;5.68;91.52;99228.91;5055038;28;20515;-51
2023/02/25 02:18:47;;;;;;;1.60;0.40;;;;;;;5.72;90.99;99222.63;5055070;28;20536;-51
2023/02/25 02:21:21;;;;;;;0.60;0.37;;;;;;;5.81;90.15;99226.81;5055011;28;20492;-51
2023/02/25 02:24:24;;;;;;;0.30;0.20;;;;;;;5.68;91.14;99226.25;5055186;28;20474;-51
2023/02/25 02:27:01;;;;;;;0.53;0.30;;;;;;;5.71;91.04;99227.94;5036186;28;20565;-51
2023/02/25 02:29:54;;;;;;;0.30;0.30;;;;;;;5.76;91.02;99236.63;5055466;28;20457;-51
2023/02/25 02:32:39;;;;;;;1.43;0.70;;;;;;;5.83;90.72;99240.81;5055139;28;20501;-50
2023/02/25 02:35:21;;;;;;;0.50;0.20;;;;;;;5.82;89.70;99241.72;5055551;28;20995;-51
2023/02/25 02:38:11;;;;;;;0.70;0.70;;;;;;;5.86;90.00;99243.38;5030442;28;20446;-51
2023/02/25 02:40:55;;;;;;;0.63;0.60;;;;;;;5.81;89.63;99242.63;5055236;28;20465;-51
2023/02/25 02:43:35;;;;;;;0.30;0.30;;;;;;;5.94;88.85;99239.66;5054984;28;20454;-51
2023/02/25 02:46:12;;;;;;;0.70;0.57;;;;;;;6.28;88.64;99240.50;5043287;28;20479;-51
2023/02/25 02:49:01;;;;;;;0.53;0.40;;;;;;;6.12;87.97;99235.66;5054750;28;20450;-52
2023/02/25 02:51:36;;;;;;;7.30;1.07;;;;;;;6.26;87.71;99237.03;5054733;28;20462;-52
2023/02/25 02:54:06;;;;;;;0.83;0.53;;;;;;;5.96;88.20;99226.44;5030621;28;20961;-52
2023/02/25 02:56:37;;;;;;;0.53;0.50;;;;;;;6.03;89.17;99233.28;5054377;28;20466;-51
2023/02/25 02:59:11;;;;;;;0.20;0.10;;;;;;;6.04;88.34;99237.66;5054780;28;20479;-53
2023/02/25 03:01:45;;;;;;;9.03;1.63;;;;;;;5.91;89.27;99237.13;5054582;28;20443;-51
2023/02/25 03:04:18;;;;;;;1.03;1.03;;;;;;;6.08;89.62;99241.94;5047330;28;20447;-50
2023/02/25 03:06:49;;;;;;;3.77;0.47;;;;;;;6.11;89.32;99236.56;5040475;28;20525;-50
2023/02/25 03:09:19;;;;;;;0.63;0.63;;;;;;;5.94;89.55;99247.56;5054134;28;20446;-50
2023/02/25 03:11:46;;;;;;;1.40;1.17;;;;;;;5.90;89.64;99245.94;5049428;28;20971;-50
2023/02/25 03:14:13;;;;;;;1.33;0.93;;;;;;;6.02;90.14;99243.84;5047752;28;20903;-50
2023/02/25 03:16:47;;;;;;;0.40;0.30;;;;;;;6.13;89.11;99247.06;5054132;28;20471;-50
2023/02/25 03:19:16;;;;;;;0.50;0.33;;;;;;;6.10;88.84;99244.53;5053891;28;20457;-51
2023/02/25 03:21:56;;;;;;;0.30;0.20;;;;;;;6.04;88.90;99240.28;5053785;28;20792;-50
2023/02/25 03:24:29;;;;;;;7.70;0.50;;;;;;;6.19;88.21;99245.16;5053668;28;20979;-51
2023/02/25 03:26:55;;;;;;;0.30;0.20;;;;;;;6.16;88.38;99249.63;5053788;28;20490;-51
2023/02/25 03:29:24;;;;;;;0.57;0.57;;;;;;;6.15;87.87;99253.16;5053789;28;20450;-50
2023/02/25 03:32:00;;;;;;;0.80;0.80;;;;;;;6.12;88.06;99255.91;5053685;28;20481;-50
2023/02/25 03:34:32;;;;;;;0.53;0.20;;;;;;;6.13;88.09;99247.06;5053882;28;20493;-50
2023/02/25 03:37:14;;;;;;;5.00;0.87;;;;;;;6.11;89.09;99252.38;5053451;28;21042;-51
2023/02/25 03:39:45;;;;;;;0.30;0.20;;;;;;;6.08;89.08;99249.84;5053667;28;20447;-50
2023/02/25 03:42:17;;;;;;;6.63;0.30;;;;;;;6.11;88.37;99251.53;5053450;28;20446;-50
2023/02/25 03:44:51;;;;;;;1.43;0.60;;;;;;;5.93;88.67;99260.81;5052696;28;20776;-51
2023/02/25 03:47:19;;;;;;;0.93;0.40;;;;;;;6.02;88.49;99264.94;5053605;28;20493;-51
2023/02/25 03:49:55;;;;;;;0.30;0.20;;;;;;;5.98;89.12;99264.19;5053722;28;20447;-50
2023/02/25 03:52:23;;;;;;;0.40;0.27;;;;;;;5.85;89.55;99265.38;5053581;28;20450;-50
2023/02/25 03:54:51;;;;;;;7.20;1.27;;;;;;;5.96;88.95;99275.69;5053431;28;20502;-50
2023/02/25 03:57:18;;;;;;;0.63;0.63;;;;;;;6.19;88.39;99273.31;5053425;28;20453;-50
2023/02/25 03:59:45;;;;;;;3.10;1.97;;;;;;;5.96;88.98;99279.19;5053293;28;20447;-50
2023/02/25 04:02:14;;;;;;;0.70;0.40;;;;;;;5.97;88.45;99280.03;5051063;28;20461;-50
2023/02/25 04:04:41;;;;;;;1.03;1.03;;;;;;;6.00;88.91;99275.53;5046253;28;20454;-51
2023/02/25 04:07:07;;;;;;;0.23;0.10;;;;;;;6.27;87.83;99283.63;5041771;28;20535;-50
2023/02/25 04:09:33;;;;;;;0.60;0.60;;;;;;;6.32;86.81;99282.63;5052744;28;20485;-50
2023/02/25 04:12:00;;;;;;;6.07;1.10;;;;;;;6.26;87.46;99284.53;5046540;28;20463;-50
2023/02/25 04:14:26;;;;;;;4.53;0.70;;;;;;;6.12;87.30;99284.91;5048465;28;21017;-50
2023/02/25 04:16:53;;;;;;;10.70;0.70;;;;;;;6.21;87.53;99274.97;5052835;28;20469;-51
2023/02/25 04:19:19;;;;;;;17.43;1.40;;;;;;;6.02;88.51;99268.44;5052701;28;20446;-50
2023/02/25 04:21:45;;;;;;;2.70;0.93;;;;;;;6.17;88.59;99276.00;5052875;28;20535;-50
2023/02/25 04:24:12;;;;;;;1.20;1.20;;;;;;;6.08;88.74;99284.13;5052545;28;20455;-50
2023/02/25 04:26:38;;;;;;;1.33;0.87;;;;;;;6.13;88.64;99282.22;5052759;28;20470;-50
2023/02/25 04:29:05;;;;;;;1.13;1.13;;;;;;;6.10;87.96;99286.72;5052682;28;20458;-51
2023/02/25 04:31:31;;;;;;;0.50;0.50;;;;;;;6.17;87.80;99285.69;5052674;28;20454;-50
2023/02/25 04:33:58;;;;;;;0.50;0.50;;;;;;;6.14;88.65;99291.00;5052072;28;20462;-50
2023/02/25 04:36:33;;;;;;;0.70;0.70;;;;;;;6.04;89.15;99290.41;5052570;28;20471;-50
2023/02/25 04:39:03;;;;;;;0.73;0.60;;;;;;;6.18;89.05;99296.19;5052616;28;20450;-51
2023/02/25 04:41:32;;;;;;;0.60;0.53;;;;;;;6.13;87.63;99298.06;5052721;28;20873;-50
2023/02/25 04:43:59;;;;;;;1.43;0.70;;;;;;;6.02;88.97;99289.56;5047104;28;20817;-50
2023/02/25 04:46:26;;;;;;;0.50;0.50;;;;;;;5.96;88.53;99295.00;5070113;22;20508;-48
2023/02/25 04:48:52;;;;;;;6.27;0.80;;;;;;;5.87;88.09;99288.16;5072350;28;20520;-50
2023/02/25 04:51:20;;;;;;;0.80;0.80;;;;;;;5.91;87.79;99289.00;5072524;28;20846;-46
2023/02/25 04:53:46;;;;;;;1.43;1.33;;;;;;;5.96;87.08;99289.72;5072508;28;20942;-47
2023/02/25 04:56:13;;;;;;;5.33;1.87;;;;;;;6.15;85.77;99290.97;5072786;28;20476;-48
2023/02/25 04:58:40;;;;;;;2.63;0.93;;;;;;;6.01;87.15;99292.25;5072748;28;20442;-47
2023/02/25 05:01:08;;;;;;;8.80;0.63;;;;;;;5.85;87.13;99292.59;5073098;28;20446;-47
2023/02/25 05:03:35;;;;;;;1.40;1.30;;;;;;;5.97;86.59;99288.81;5072454;28;20468;-48
2023/02/25 05:06:03;;;;;;;0.40;0.37;;;;;;;5.98;86.14;99276.50;5072637;28;20461;-47
2023/02/25 05:08:30;;;;;;;10.37;1.07;;;;;;;6.01;85.70;99279.91;5059295;28;20485;-48
2023/02/25 05:10:56;;;;;;;9.13;0.40;;;;;;;5.88;86.84;99274.06;5072908;28;20969;-47
2023/02/25 05:13:23;;;;;;;0.53;0.50;;;;;;;5.80;87.15;99288.38;5071038;28;20457;-47
2023/02/25 05:15:49;;;;;;;0.43;0.40;;;;;;;5.73;87.16;99286.78;5072487;28;20538;-48
2023/02/25 05:18:16;;;;;;;0.40;0.30;;;;;;;5.74;87.53;99283.22;5072475;28;20442;-47
2023/02/25 05:20:45;;;;;;;5.30;1.17;;;;;;;5.59;88.10;99295.88;5072228;28;20822;-47
2023/02/25 05:23:12;;;;;;;6.00;0.60;;;;;;;5.66;88.20;99296.63;5072239;28;20881;-47
2023/02/25 05:25:42;;;;;;;0.40;0.40;;;;;;;5.63;88.72;99294.94;5071982;28;20527;-47
2023/02/25 05:28:10;;;;;;;1.30;1.23;;;;;;;5.64;88.65;99307.22;5072082;28;20863;-47
2023/02/25 05:30:38;;;;;;;0.40;0.30;;;;;;;5.62;87.98;99309.03;5072257;28;20450;-47
2023/02/25 05:33:05;;;;;;;4.90;0.43;;;;;;;5.77;87.57;99314.81;5072126;28;20456;-47
2023/02/25 05:35:32;;;;;;;0.90;0.60;;;;;;;5.73;87.51;99313.13;5071967;28;20469;-47
2023/02/25 05:37:59;;;;;;;0.80;0.63;;;;;;;5.72;87.96;99306.13;5072038;28;20939;-47
2023/02/25 05:40:26;;;;;;;0.40;0.40;;;;;;;5.69;87.57;99325.53;5071912;28;20446;-48
2023/02/25 05:42:52;;;;;;;0.40;0.30;;;;;;;5.62;88.06;99313.44;5071852;28;20456;-47
2023/02/25 05:45:19;;;;;;;7.83;0.80;;;;;;;5.72;87.66;99321.94;5071396;28;20470;-47
2023/02/25 05:47:45;;;;;;;2.07;0.93;;;;;;;5.68;87.49;99307.13;5071974;28;20493;-47
2023/02/25 05:50:12;;;;;;;3.30;1.80;;;;;;;5.72;88.17;99308.78;5071868;28;20537;-47
2023/02/25 05:52:38;;;;;;;3.93;0.50;;;;;;;5.72;89.32;99292.94;5072095;28;20441;-47
2023/02/25 05:55:07;;;;;;;2.67;2.00;;;;;;;5.59;91.16;99295.88;5071692;28;20515;-47
2023/02/25 05:57:34;;;;;;;2.40;0.60;;;;;;;5.77;91.04;99297.22;5071593;28;20442;-47
2023/02/25 06:00:00;;;;;;;0.40;0.30;;;;;;;5.81;90.90;99300.66;5071551;28;20464;-47
2023/02/25 06:02:27;;;;;;;1.03;0.73;;;;;;;5.63;91.34;99308.13;5071857;28;20449;-47
2023/02/25 06:04:53;;;;;;;2.63;1.10;;;;;;;5.88;90.30;99308.34;5071734;28;20867;-47
2023/02/25 06:07:20;;;;;;;0.67;0.67;;;;;;;5.56;91.85;99301.25;5071605;28;20615;-47
2023/02/25 06:09:46;;;;;;;0.60;0.60;;;;;;;5.52;93.01;99301.38;5074675;28;20571;-48
2023/02/25 06:12:13;;;;;;;0.60;0.60;;;;;;;5.38;93.87;99311.38;5075016;28;20484;-48
2023/02/25 06:14:39;;;;;;;0.70;0.50;;;;;;;5.39;93.47;99303.41;5074935;28;20452;-46
2023/02/25 06:17:06;;;;;;;8.00;2.47;;;;;;;5.30;93.89;99304.50;5075173;28;20560;-46
2023/02/25 06:19:32;;;;;;;1.80;0.70;;;;;;;5.24;94.16;99309.06;5075148;28;20445;-46
2023/02/25 06:21:58;;;;;;;0.33;0.30;;;;;;;5.10;94.22;99309.38;5075010;28;20445;-46
2023/02/25 06:24:25;;;;;;;2.77;0.80;;;;;;;5.01;93.99;99306.91;5074913;28;20468;-46
2023/02/25 06:26:51;;;;;;;0.47;0.47;;;;;;;5.05;94.61;99312.06;5074676;28;20556;-46
2023/02/25 06:29:18;;;;;;;0.50;0.50;;;;;;;4.96;94.83;99314.94;5074909;28;20542;-46
2023/02/25 06:31:44;;;;;;;0.33;0.30;;;;;;;4.80;95.03;99325.78;5074952;28;20473;-47
2023/02/25 06:34:11;;;;;;;0.57;0.57;;;;;;;5.04;94.27;99327.91;5074724;28;20446;-46
2023/02/25 06:36:38;;;;;;;0.30;0.23;;;;;;;4.73;93.57;99327.69;5074666;28;20487;-47
2023/02/25 06:39:04;;;;;;;1.50;1.40;;;;;;;4.65;94.39;99327.84;5074493;28;20445;-46
2023/02/25 06:41:31;;;;;;;2.77;0.37;;;;;;;4.57;94.66;99331.56;5074564;28;20511;-46
2023/02/25 06:43:57;;;;;;;2.97;1.67;;;;;;;4.50;94.53;99343.06;5074433;28;20816;-47
2023/02/25 06:46:25;;;;;;;1.20;0.90;;;;;;;4.22;95.76;99343.59;5074389;28;20524;-46
2023/02/25 06:48:52;;;;;;;0.37;0.20;;;;;;;4.09;96.46;99349.97;5074208;28;21071;-46
2023/02/25 06:51:19;;;;;;;0.30;0.30;;;;;;;3.99;97.81;99338.75;5074930;28;20503;-46
2023/02/25 06:53:46;;;;;;;1.03;1.03;;;;;;;3.72;98.70;99341.84;5074241;28;20992;-46
2023/02/25 06:56:14;;;;;;;5.93;1.80;;;;;;;3.81;98.04;99341.69;5074165;28;20982;-47
2023/02/25 06:58:41;;;;;;;0.73;0.73;;;;;;;3.84;98.02;99345.16;5074356;28;20504;-47
2023/02/25 07:01:14;;;;;;;0.33;0.20;;;;;;;3.79;98.04;99346.09;5074453;28;20450;-46
2023/02/25 07:03:42;;;;;;;0.30;0.20;;;;;;;3.82;98.32;99356.56;5074397;28;20503;-46
2023/02/25 07:06:09;;;;;;;4.27;1.37;;;;;;;4.05;97.76;99366.69;5074349;28;20507;-46
2023/02/25 07:08:35;;;;;;;0.40;0.30;;;;;;;4.11;97.92;99367.47;5074204;28;20499;-47
2023/02/25 07:11:25;;;;;;;0.70;0.23;;;;;;;4.25;98.43;99377.75;5074160;28;21029;-46
2023/02/25 07:13:52;;;;;;;2.03;0.73;;;;;;;4.33;98.58;99381.09;5064762;28;20902;-47
2023/02/25 07:16:19;;;;;;;0.40;0.40;;;;;;;4.58;97.67;99367.50;5073936;28;20477;-46
2023/02/25 07:18:46;;;;;;;0.70;0.70;;;;;;;4.64;98.55;99378.75;5074065;28;20438;-47
2023/02/25 07:21:13;;;;;;;3.30;0.30;;;;;;;4.74;97.11;99382.09;5072779;28;20446;-47
2023/02/25 07:23:40;;;;;;;1.93;1.53;;;;;;;4.84;96.85;99378.38;5073887;28;20955;-47
2023/02/25 07:26:09;;;;;;;0.30;0.30;;;;;;;5.01;96.31;99378.03;5073856;28;20466;-47
2023/02/25 07:28:36;;;;;;;3.13;0.73;;;;;;;5.34;95.50;99384.31;5073699;28;20852;-47
2023/02/25 07:31:07;;;;;;;4.60;0.50;;;;;;;5.39;95.47;99387.75;5073558;28;20449;-47
2023/02/25 07:33:34;;;;;;;1.87;1.10;;;;;;;5.49;95.33;99388.41;5073687;28;20449;-47
2023/02/25 07:36:01;;;;;;;0.30;0.30;;;;;;;5.47;94.71;99391.06;5073363;28;20476;-47
2023/02/25 07:38:27;;;;;;;1.27;0.40;;;;;;;5.35;94.58;99401.91;5056021;28;20441;-46
2023/02/25 07:40:53;;;;;;;22.17;0.70;;;;;;;5.71;92.75;99404.59;5073569;28;20587;-47
2023/02/25 07:43:20;;;;;;;2.43;1.13;;;;;;;5.66;93.23;99394.16;5073539;28;20468;-47
2023/02/25 07:45:48;;;;;;;2.73;2.63;;;;;;;5.76;92.22;99390.41;5073234;28;20493;-46
2023/02/25 07:48:15;;;;;;;8.23;1.50;;;;;;;5.58;94.07;99402.22;5073115;28;20576;-46
2023/02/25 07:50:43;;;;;;;1.40;1.30;;;;;;;5.78;93.25;99404.44;5073533;28;20549;-47
2023/02/25 07:53:10;;;;;;;6.47;0.80;;;;;;;5.87;93.09;99411.22;5073477;28;20481;-47
2023/02/25 07:55:36;;;;;;;21.33;0.87;;;;;;;5.89;94.09;99398.88;5073256;28;20465;-49
2023/02/25 07:58:02;;;;;;;0.80;0.60;;;;;;;6.04;93.27;99403.84;5073293;28;20449;-47
2023/02/25 08:00:32;;;;;;;3.63;1.43;;;;;;;6.26;93.11;99409.44;5059977;28;20545;-46
2023/02/25 08:02:58;;;;;;;1.50;1.50;;;;;;;6.26;92.07;99406.78;5073451;28;20450;-46
2023/02/25 08:05:25;;;;;;;0.30;0.30;;;;;;;6.28;91.61;99393.53;5061238;28;20488;-48
2023/02/25 08:07:51;;;;;;;1.90;0.63;;;;;;;6.21;92.87;99398.13;5073073;28;20535;-46
2023/02/25 08:10:18;;;;;;;2.13;0.50;;;;;;;6.19;92.23;99399.94;5073042;28;20450;-48
2023/02/25 08:12:44;;;;;;;4.27;2.07;;;;;;;6.20;92.11;99397.25;5072691;28;20836;-46
2023/02/25 08:15:10;;;;;;;0.33;0.27;;;;;;;6.44;93.37;99400.16;5072953;28;20446;-47
2023/02/25 08:17:37;;;;;;;0.40;0.30;;;;;;;6.48;91.79;99396.56;5073382;28;20457;-47
2023/02/25 08:20:04;;;;;;;16.03;0.97;;;;;;;6.35;92.83;99405.69;5073024;28;20449;-47
2023/02/25 08:22:31;;;;;;;0.70;0.30;;;;;;;6.57;92.06;99395.41;5072938;28;20446;-47
2023/02/25 08:24:57;;;;;;;0.30;0.23;;;;;;;6.70;91.25;99389.75;5072856;28;20966;-46
2023/02/25 08:27:24;;;;;;;7.73;1.00;;;;;;;6.78;90.39;99392.22;5072815;28;20446;-48
2023/02/25 08:29:50;;;;;;;1.03;0.53;;;;;;;6.66;90.37;99393.41;5072575;28;20492;-49
2023/02/25 08:32:17;;;;;;;1.47;1.37;;;;;;;6.67;88.63;99394.28;5072466;28;20457;-47
2023/02/25 08:34:44;;;;;;;1.70;1.13;;;;;;;6.71;89.54;99396.78;5072889;28;20450;-46
2023/02/25 08:37:14;;;;;;;1.10;1.10;;;;;;;6.79;90.27;99401.88;5072552;28;20478;-47
2023/02/25 08:39:40;;;;;;;2.50;0.30;;;;;;;6.76;91.37;99404.59;5072551;28;20450;-47
2023/02/25 08:42:06;;;;;;;1.10;1.10;;;;;;;6.47;94.10;99398.31;5072369;28;20445;-48
2023/02/25 08:44:33;;;;;;;0.50;0.30;;;;;;;6.63;94.28;99393.50;5072319;28;20917;-47
2023/02/25 08:46:59;;;;;;;0.40;0.40;;;;;;;6.49;95.95;99411.47;5072276;28;20477;-48
2023/02/25 08:49:26;;;;;;;10.17;1.60;;;;;;;6.47;95.33;99408.03;5072472;28;20540;-46
2023/02/25 08:51:52;;;;;;;1.20;1.13;;;;;;;6.68;94.71;99399.50;5072341;28;20450;-47
2023/02/25 08:54:19;;;;;;;0.40;0.30;;;;;;;6.46;95.11;99403.66;5072448;28;20469;-46
2023/02/25 08:56:46;;;;;;;7.63;0.60;;;;;;;6.67;94.36;99405.69;5072141;28;20509;-47
2023/02/25 08:59:14;;;;;;;0.53;0.53;;;;;;;6.66;94.58;99409.25;5071945;28;20783;-47
2023/02/25 09:01:44;;;;;;;3.40;0.60;;;;;;;6.45;95.49;99405.44;5072023;28;20454;-47
2023/02/25 09:04:16;;;;;;;2.83;2.73;;;;;;;6.48;95.33;99412.38;5054426;28;20449;-47
2023/02/25 09:06:46;;;;;;;0.27;0.20;;;;;;;6.80;94.18;99417.66;5072131;28;20831;-47
2023/02/25 09:09:14;;;;;;;2.57;0.63;;;;;;;6.77;94.08;99411.59;5072152;28;20885;-47
2023/02/25 09:11:41;;;;;;;0.40;0.30;;;;;;;6.80;93.07;99412.38;5071787;28;20808;-46
2023/02/25 09:14:09;;;;;;;15.90;0.67;;;;;;;6.85;91.31;99406.97;5072205;28;20534;-47
2023/02/25 09:16:35;;;;;;;0.70;0.50;;;;;;;7.22;92.50;99412.06;5072006;28;20469;-47
2023/02/25 09:19:02;;;;;;;0.40;0.30;;;;;;;7.57;89.41;99397.81;5071855;28;20449;-47
2023/02/25 09:21:29;;;;;;;0.37;0.30;;;;;;;7.60;87.16;99407.44;5071903;28;20449;-46
2023/02/25 09:23:57;;;;;;;0.67;0.57;;;;;;;7.32;85.20;99408.25;5071615;28;20943;-47
2023/02/25 09:26:23;;;;;;;0.80;0.80;;;;;;;7.27;84.53;99419.91;5071701;28;20474;-46
2023/02/25 09:28:50;;;;;;;3.60;1.07;;;;;;;7.24;84.46;99418.19;5071653;28;20513;-47
2023/02/25 09:31:16;;;;;;;10.03;2.10;;;;;;;7.23;85.23;99415.59;5071914;28;20500;-46
2023/02/25 09:33:44;;;;;;;0.93;0.93;;;;;;;7.26;84.58;99421.63;5071707;28;20446;-46
2023/02/25 09:36:15;;;;;;;6.60;1.30;;;;;;;7.05;84.37;99414.34;5071603;28;20829;-46
2023/02/25 09:38:43;;;;;;;0.50;0.50;;;;;;;6.84;86.06;99416.66;5071459;28;20797;-46
2023/02/25 09:41:34;;;;;;;4.60;1.73;;;;;;;6.59;87.17;99417.41;5071887;28;20446;-47
2023/02/25 09:44:25;;;;;;;2.10;1.20;;;;;;;6.79;87.63;99412.44;5073654;28;20460;-46
2023/02/25 09:46:58;;;;;;;1.63;0.73;;;;;;;6.97;87.96;99408.41;5074903;28;20473;-47
2023/02/25 09:49:40;;;;;;;0.80;0.80;;;;;;;7.13;87.02;99409.72;5075372;28;20853;-48
2023/02/25 09:52:17;;;;;;;9.13;1.07;;;;;;;7.09;85.00;99411.56;5075185;28;20541;-47
2023/02/25 09:54:47;;;;;;;11.43;0.77;;;;;;;7.16;83.88;99411.41;5075581;28;20447;-49
2023/02/25 09:57:19;;;;;;;1.63;0.50;;;;;;;7.36;84.29;99409.88;5062459;28;20469;-49
2023/02/25 09:59:46;;;;;;;3.20;0.70;;;;;;;7.48;82.81;99400.72;5075273;28;20453;-47
2023/02/25 10:02:19;;;;;;;2.27;0.37;;;;;;;7.48;81.77;99398.09;5075281;28;20456;-47
2023/02/25 10:05:22;;;;;;;0.70;0.60;;;;;;;7.50;82.55;99398.91;5075287;28;20453;-46
2023/02/25 10:08:19;;;;;;;1.07;1.07;;;;;;;7.65;81.47;99400.22;5074933;28;20445;-46
2023/02/25 10:11:30;;;;;;;4.87;1.77;;;;;;;7.56;81.96;99392.56;5075156;28;20469;-47
2023/02/25 10:14:24;;;;;;;0.80;0.77;;;;;;;7.79;79.56;99399.78;5004739;28;20464;-47
2023/02/25 10:17:02;;;;;;;2.20;0.70;;;;;;;7.76;78.00;99399.88;5013162;28;21002;-47
2023/02/25 10:19:54;;;;;;;5.47;1.23;;;;;;;7.75;77.91;99403.44;5057996;28;20454;-47
2023/02/25 10:22:35;;;;;;;2.47;0.90;;;;;;;7.90;76.83;99392.38;5075183;28;20472;-47
2023/02/25 10:25:13;;;;;;;2.00;0.77;;;;;;;8.15;75.78;99401.25;5075209;28;20471;-48
2023/02/25 10:27:48;;;;;;;4.33;1.50;;;;;;;7.96;76.47;99394.84;5075029;28;20463;-47
2023/02/25 10:30:23;;;;;;;9.83;0.70;;;;;;;8.16;75.92;99394.16;5074946;28;20485;-48
2023/02/25 10:32:50;;;;;;;15.87;1.37;;;;;;;8.43;75.03;99395.91;5061970;28;20441;-46
2023/02/25 10:35:38;;;;;;;0.30;0.30;;;;;;;8.49;75.60;99397.47;5074968;28;20453;-47
2023/02/25 10:38:04;;;;;;;1.20;0.70;;;;;;;8.70;72.76;99390.56;5074859;28;20446;-47
2023/02/25 10:40:31;;;;;;;12.53;1.60;;;;;;;8.71;72.18;99397.59;5074799;28;20477;-47
2023/02/25 10:43:17;;;;;;;0.40;0.40;;;;;;;8.59;70.38;99405.06;5074831;28;20504;-47
2023/02/25 10:45:45;;;;;;;8.80;0.40;;;;;;;8.71;69.59;99409.06;5075073;28;20501;-51
2023/02/25 10:48:20;;;;;;;0.30;0.20;;;;;;;8.92;70.90;99407.44;5074599;28;20446;-52
2023/02/25 10:51:14;;;;;;;0.40;0.30;;;;;;;9.00;69.05;99409.81;5074360;28;20449;-52
2023/02/25 10:53:55;;;;;;;7.33;0.73;;;;;;;8.91;68.71;99397.78;5071017;28;20457;-52
2023/02/25 10:56:43;;;;;;;1.07;0.97;;;;;;;8.65;68.43;99404.00;5074310;28;20840;-51
2023/02/25 10:59:40;;;;;;;10.30;0.40;;;;;;;8.53;70.57;99399.13;5074159;28;20446;-51
2023/02/25 11:02:22;;;;;;;1.90;0.40;;;;;;;8.52;70.61;99405.34;5061854;28;20456;-50
2023/02/25 11:04:51;;;;;;;4.60;0.97;;;;;;;8.49;70.69;99397.47;5074306;28;20537;-52
2023/02/25 11:07:23;;;;;;;14.67;1.40;;;;;;;8.29;70.58;99411.38;5074311;28;20466;-52
2023/02/25 11:10:16;;;;;;;0.80;0.70;;;;;;;8.15;70.80;99409.19;5074113;28;20481;-52
2023/02/25 11:12:48;;;;;;;1.40;0.50;;;;;;;8.20;69.55;99406.38;5074128;28;20450;-51
2023/02/25 11:15:29;;;;;;;14.87;0.70;;;;;;;8.31;67.22;99391.88;5073964;28;20441;-52
2023/02/25 11:18:19;;;;;;;6.23;0.43;;;;;;;8.69;68.23;99395.00;5073995;28;20450;-52
2023/02/25 11:21:07;;;;;;;9.83;0.97;;;;;;;8.75;66.80;99410.69;5073939;28;20449;-52
2023/02/25 11:23:42;;;;;;;1.80;0.40;;;;;;;8.87;67.01;99399.66;5073956;28;20865;-52
2023/02/25 11:26:14;;;;;;;1.37;0.50;;;;;;;8.98;68.64;99395.75;5073625;28;20469;-52
2023/02/25 11:28:47;;;;;;;3.60;0.73;;;;;;;9.03;66.72;99394.66;5073878;28;20445;-52
2023/02/25 11:31:20;;;;;;;0.93;0.90;;;;;;;8.61;66.23;99389.97;5060798;28;20827;-52
2023/02/25 11:34:11;;;;;;;3.80;0.90;;;;;;;8.63;66.27;99389.91;5073598;28;21029;-52
2023/02/25 11:36:38;;;;;;;3.10;0.57;;;;;;;8.42;66.49;99390.69;5062976;28;20469;-52
2023/02/25 11:39:22;;;;;;;4.53;1.17;;;;;;;8.63;65.98;99389.03;5073615;28;20441;-51
2023/02/25 11:41:51;;;;;;;11.97;0.80;;;;;;;8.67;67.08;99391.56;5073765;28;20453;-52
2023/02/25 11:44:29;;;;;;;1.07;1.07;;;;;;;8.62;67.03;99385.53;5073629;28;20446;-52
2023/02/25 11:47:24;;;;;;;0.60;0.43;;;;;;;9.04;64.84;99388.41;5073524;28;20511;-52
2023/02/25 11:50:28;;;;;;;3.43;0.63;;;;;;;9.19;64.05;99390.53;5073249;28;20858;-51
2023/02/25 11:53:15;;;;;;;0.40;0.30;;;;;;;9.04;63.14;99390.22;5073252;28;20452;-52
2023/02/25 11:56:23;;;;;;;6.63;0.40;;;;;;;9.04;63.28;99392.84;5073052;28;20831;-52
2023/02/25 11:59:28;;;;;;;1.93;1.80;;;;;;;9.02;63.11;99382.31;4991772;28;20900;-50
2023/02/25 12:02:14;;;;;;;6.90;0.60;;;;;;;9.02;63.54;99370.84;5073294;28;20816;-51